Latest Weather Observations for Browse Island

IDW60801

Issued at 7:33 am WST Friday 19 August 2022 (issued every 10 minutes, with the page automatically refreshed every 10 minutes)

About weather observations | Map of weather stations | Latest weather observations for WA | Other Formats
Station Details ID: 200784 Name: BROWSE ISLAND Lat: -14.11 Lon: 123.55 Height: 3.7 m
Data from the previous 72 hours. | See also: Recent months at Browse Island
Date/Time
WST
Temp
°C
App
Temp
°C
Dew
Point
°C
Rel
Hum
%
Delta-T
°C
Wind Press
QNH
hPa
Press
MSL
hPa
Rain since
9am
mm
Dir  Spd
km/h
Gust
km/h
Spd
kts
Gust
kts
19/07:30am 26.0 - - - - WNW 13 13 7 7 1013.0 1013.7 -
19/07:00am 25.9 - - - - WNW 13 - 7 - 1013.0 1013.5 -
19/06:30am 26.0 - - - - WNW 15 - 8 - 1013.0 - -
19/06:00am 25.6 - - - - WNW 13 - 7 - 1013.0 1013.0 -
19/05:30am 26.0 - - - - WNW 13 - 7 - 1013.0 - -
19/05:00am 25.7 - - - - NW 9 - 5 - 1012.0 1012.7 -
19/04:30am 26.0 - - - - NNW 4 - 2 - 1012.0 - -
19/04:00am 25.6 - - - - CALM 0 - 0 - 1012.0 1012.8 -
19/03:30am 26.0 - - - - NNW 6 - 3 - 1012.0 - -
19/03:00am 26.1 - - - - NNW 9 - 5 - 1012.0 1012.7 -
19/02:30am 26.0 - - - - WNW 9 - 5 - 1012.0 - -
19/02:00am 26.1 - - - - WNW 9 - 5 - 1012.0 1012.7 -
19/01:30am 26.0 - - - - NW 9 - 5 - 1012.0 - -
19/01:00am 26.2 - - - - NW 9 - 5 - 1013.0 1013.0 -
19/12:30am 26.0 - - - - WSW 7 - 4 - 1013.0 - -
19/12:00am 26.2 - - - - WSW 9 - 5 - 1013.0 1013.5 -
 
Date/Time
WST
Temp
°C
App
Temp
°C
Dew
Point
°C
Rel
Hum
%
Delta-T
°C
Wind Press
QNH
hPa
Press
MSL
hPa
Rain since
9am
mm
Dir  Spd
km/h
Gust
km/h
Spd
kts
Gust
kts
18/11:30pm 26.0 - - - - WSW 7 - 4 - 1013.0 - -
18/11:00pm 26.4 - - - - WSW 7 - 4 - 1013.0 1013.5 -
18/10:30pm 26.0 - - - - WSW 6 - 3 - 1013.0 - -
18/10:00pm 26.3 - - - - WSW 7 - 4 - 1013.0 1013.7 -
18/09:30pm 26.0 - - - - WSW 7 - 4 - 1013.0 - -
18/09:00pm 26.4 - - - - WSW 9 - 5 - 1013.0 1013.4 -
18/08:30pm 26.0 - - - - WSW 9 - 5 - 1013.0 - -
18/08:00pm 26.6 - - - - SW 9 - 5 - 1013.0 1013.2 -
18/07:30pm 27.0 - - - - SSW 9 - 5 - 1013.0 - -
18/07:00pm 26.6 - - - - SSW 9 - 5 - 1013.0 1012.9 -
18/06:30pm 27.0 - - - - S 9 - 5 - 1012.0 - -
18/06:00pm 26.7 - - - - S 9 - 5 - 1012.0 1012.5 -
18/05:30pm 27.0 - - - - SSE 13 - 7 - 1012.0 - -
18/05:00pm 26.8 - - - - SSE 13 - 7 - 1012.0 1012.3 -
18/04:30pm 27.0 - - - - SSE 15 - 8 - 1012.0 - -
18/04:00pm 27.2 - - - - SSE 17 - 9 - 1012.0 1012.2 -
18/03:30pm 27.0 - - - - SSE 19 - 10 - 1012.0 - -
18/03:00pm 27.2 - - - - SSE 19 - 10 - 1012.0 1012.2 -
18/02:30pm 28.0 - - - - SSE 20 - 11 - 1012.0 - -
18/02:00pm 26.9 - - - - SSE 22 - 12 - 1012.0 1012.6 -
18/01:30pm 27.0 - - - - SSE 20 - 11 - 1013.0 - -
18/01:00pm 26.7 - - - - SE 20 - 11 - 1013.0 1013.2 -
18/12:30pm 27.0 - - - - SSE 20 - 11 - 1013.0 - -
18/12:00pm 26.7 - - - - SSE 22 - 12 - 1014.0 1014.1 -
18/11:30am 27.0 - - - - SSE 19 - 10 - 1014.0 - -
18/11:00am 26.8 - - - - SE 17 - 9 - 1015.0 1014.9 -
18/10:30am 28.0 - - - - SE 17 - 9 - 1015.0 - -
18/10:00am 27.3 - - - - ESE 19 - 10 - 1015.0 1015.5 -
18/09:30am 27.0 - - - - SE 19 - 10 - 1015.0 - -
18/09:00am 26.7 - - - - SE 19 - 10 - 1016.0 1015.9 -
18/08:30am 26.0 - - - - SE 15 - 8 - 1016.0 - -
18/08:00am 26.0 - - - - SE 17 - 9 - 1015.0 1015.5 -
18/07:30am 26.0 - - - - ESE 13 - 7 - 1015.0 - -
18/07:00am 25.6 - - - - ESE 15 - 8 - 1015.0 1015.0 -
18/06:30am 26.0 - - - - E 13 - 7 - 1014.0 - -
18/06:00am 25.2 - - - - E 13 - 7 - 1014.0 1014.5 -
18/05:30am 26.0 - - - - ESE 17 - 9 - 1014.0 - -
18/05:00am 25.3 - - - - ESE 17 - 9 - 1014.0 1013.9 -
18/04:30am 26.0 - - - - ESE 17 - 9 - 1013.0 - -
18/04:00am 25.9 - - - - ESE 17 - 9 - 1013.0 1013.5 -
18/03:30am 26.0 - - - - ESE 15 - 8 - 1013.0 - -
18/03:00am 25.9 - - - - E 11 - 6 - 1013.0 1013.4 -
18/02:30am 26.0 - - - - E 13 - 7 - 1013.0 - -
18/02:00am 26.0 - - - - E 11 - 6 - 1013.0 1013.7 -
18/01:30am 26.0 - - - - E 13 - 7 - 1014.0 - -
18/01:00am 25.9 - - - - E 11 - 6 - 1014.0 1014.2 -
18/12:30am 26.0 - - - - E 11 - 6 - 1014.0 - -
18/12:00am 25.9 - - - - ESE 11 - 6 - 1014.0 1014.6 -
 
Date/Time
WST
Temp
°C
App
Temp
°C
Dew
Point
°C
Rel
Hum
%
Delta-T
°C
Wind Press
QNH
hPa
Press
MSL
hPa
Rain since
9am
mm
Dir  Spd
km/h
Gust
km/h
Spd
kts
Gust
kts
17/11:30pm 26.0 - - - - ESE 13 - 7 - 1014.0 - -
17/11:00pm 25.9 - - - - ESE 11 - 6 - 1015.0 1014.9 -
17/10:30pm 26.0 - - - - SE 11 - 6 - 1015.0 - -
17/10:00pm 25.8 - - - - SE 11 - 6 - 1015.0 1015.1 -
17/09:30pm 26.0 - - - - SSE 9 - 5 - 1015.0 - -
17/09:00pm 25.8 - - - - S 9 - 5 - 1015.0 1015.1 -
17/08:30pm 26.0 - - - - S 11 - 6 - 1015.0 - -
17/08:00pm 26.0 - - - - S 11 - 6 - 1015.0 1015.1 -
17/07:30pm 26.0 - - - - S 11 - 6 - 1015.0 - -
17/07:00pm 26.1 - - - - SSE 9 - 5 - 1014.0 1014.6 -
17/06:30pm 26.0 - - - - SSE 11 - 6 - 1014.0 - -
17/06:00pm 26.0 - - - - SSE 13 - 7 - 1014.0 1013.9 -
17/05:30pm 26.0 - - - - SSE 15 - 8 - 1013.0 - -
17/05:00pm 26.1 - - - - SSE 17 - 9 - 1013.0 1013.5 -
17/04:30pm 26.5 - - - - SSE 17 20 9 11 1013.5 1013.4 -
17/04:00pm 26.6 - - - - SSE 17 - 9 - 1013.0 1013.5 -
17/03:30pm 27.0 - - - - SSE 19 - 10 - 1013.0 - -
17/03:00pm 26.8 - - - - SSE 20 - 11 - 1013.0 1013.4 -
17/02:30pm 27.0 - - - - SE 19 - 10 - 1013.0 - -
17/02:00pm 27.7 - - - - SE 19 - 10 - 1013.0 1013.4 -
17/01:30pm 27.0 - - - - SSE 19 - 10 - 1013.0 - -
17/01:00pm 27.2 - - - - SSE 17 - 9 - 1014.0 1014.1 -
17/12:30pm 27.0 - - - - SSE 15 - 8 - 1014.0 - -
17/12:00pm 26.9 - - - - SSE 15 - 8 - 1015.0 1014.9 -
17/11:30am 27.0 - - - - SE 15 - 8 - 1015.0 - -
17/11:00am 28.1 - - - - SE 13 - 7 - 1015.0 1015.8 -
17/10:30am 27.0 - - - - SE 13 - 7 - 1016.0 - -
17/10:00am 27.8 - - - - ESE 11 - 6 - 1016.0 1016.6 -
17/09:30am 28.0 - - - - ESE 11 - 6 - 1016.0 - -
17/09:00am 26.9 - - - - ESE 11 - 6 - 1016.0 1016.6 -
17/08:30am 27.0 - - - - ESE 11 - 6 - 1016.0 - -
17/08:00am 26.9 - - - - ESE 9 - 5 - 1016.0 1016.2 -
17/07:30am 27.0 - - - - ESE 11 - 6 - 1016.0 - -
17/07:00am 26.1 - - - - SE 13 - 7 - 1015.0 1015.5 -
17/06:30am 26.0 - - - - ESE 13 - 7 - 1015.0 - -
17/06:00am 26.0 - - - - SE 11 - 6 - 1014.0 1014.7 -
17/05:30am 26.2 - - - - ESE 11 13 6 7 1014.4 1014.3 -
17/05:00am 26.0 - - - - ENE 11 13 6 7 1014.0 1013.9 -
17/04:30am 26.0 - - - - ENE 11 - 6 - 1013.0 - -
17/04:00am 25.9 - - - - ENE 11 - 6 - 1013.0 1013.5 -
17/03:30am 26.0 - - - - ENE 11 - 6 - 1013.0 - -
17/03:00am 26.4 - - - - ENE 13 - 7 - 1013.0 1013.6 -
17/02:30am 26.5 - - - - NE 15 19 8 10 1013.9 1013.8 -
17/02:00am 26.3 - - - - NE 15 - 8 - 1013.0 1013.8 -
17/01:30am 26.0 - - - - NE 15 - 8 - 1014.0 - -
17/01:00am 26.7 - - - - NE 15 - 8 - 1014.0 1014.2 -
17/12:30am 27.0 - - - - NE 17 - 9 - 1014.0 - -
17/12:00am 26.7 - - - - NE 15 - 8 - 1014.0 1014.4 -
 
Date/Time
WST
Temp
°C
App
Temp
°C
Dew
Point
°C
Rel
Hum
%
Delta-T
°C
Wind Press
QNH
hPa
Press
MSL
hPa
Rain since
9am
mm
Dir  Spd
km/h
Gust
km/h
Spd
kts
Gust
kts
16/11:30pm 27.0 - - - - NE 15 - 8 - 1014.0 - -
16/11:00pm 26.8 - - - - NE 15 - 8 - 1014.0 1014.4 -
16/10:30pm 27.0 - - - - NNE 17 - 9 - 1014.0 - -
16/10:00pm 26.9 - - - - NNE 15 - 8 - 1014.0 1014.3 -
16/09:30pm 27.0 - - - - NNE 15 - 8 - 1014.0 - -
16/09:00pm 26.6 - - - - NNE 15 - 8 - 1014.0 1014.0 -
16/08:30pm 27.0 - - - - NNE 15 - 8 - 1013.0 - -
16/08:00pm 26.3 - - - - NE 15 - 8 - 1013.0 1013.7 -
16/07:30pm 27.0 - - - - NE 17 - 9 - 1013.0 - -
16/07:00pm 26.8 - - - - NE 17 - 9 - 1013.0 1013.0 -
16/06:30pm 27.0 - - - - NE 19 - 10 - 1012.0 - -
16/06:00pm 26.9 - - - - ENE 22 - 12 - 1012.0 1012.4 -
16/05:30pm 27.0 - - - - ENE 22 - 12 - 1012.0 - -
16/05:00pm 27.2 - - - - E 22 - 12 - 1012.0 1011.9 -
16/04:30pm 28.0 - - - - E 20 - 11 - 1011.0 - -
16/04:00pm 28.2 - - - - E 19 - 10 - 1011.0 1011.7 -
16/03:30pm 28.0 - - - - E 20 - 11 - 1011.0 - -
16/03:00pm 28.2 - - - - E 20 - 11 - 1011.0 1011.5 -
16/02:30pm 28.0 - - - - E 19 - 10 - 1011.0 - -
16/02:00pm 28.2 - - - - E 20 24 11 13 1012.0 1011.9 -
16/01:30pm 29.0 - - - - E 19 - 10 - 1012.0 - -
16/01:00pm 29.0 - - - - E 19 - 10 - 1012.0 1012.6 -
16/12:30pm 28.0 - - - - E 19 - 10 - 1013.0 - -
16/12:00pm 28.8 - - - - E 19 - 10 - 1013.0 1013.4 -
16/11:30am 29.0 - - - - E 17 - 9 - 1013.0 - -
16/11:00am 28.4 - - - - ENE 17 - 9 - 1014.0 1014.2 -
16/10:30am 29.0 - - - - ENE 15 - 8 - 1014.0 - -
16/10:00am 29.4 - - - - E 17 - 9 - 1014.0 1014.8 -
16/09:30am 28.0 - - - - ENE 15 - 8 - 1014.0 - -
16/09:00am 28.4 - - - - ENE 15 - 8 - 1014.0 1014.7 -
16/08:30am 28.0 - - - - ENE 15 - 8 - 1014.0 - -
16/08:00am 27.1 - - - - ENE 15 - 8 - 1014.0 1014.4 -

Other formats

Comma delimited format used in spreadsheet applications
http://www.bom.gov.au/fwo/IDW60801/IDW60801.94103.axf

JavaScript Object Notation format (JSON) in row-major order
http://www.bom.gov.au/fwo/IDW60801/IDW60801.94103.json

Data quality

Most of these data are generated automatically and are frequently updated. Quality checks on data are not normally performed. It is possible for incorrect values to appear. Refer to information at About Latest Weather Observations and please check the disclaimer before using these data.